sensor_id;sensor_type;location;lat;lon;timestamp;P1;durP1;ratioP1;P2;durP2;ratioP2
17598;SDS011;8918;52.092;5.232;2022-09-09T00:00:24;3.55;;;2.53;;
17598;SDS011;8918;52.092;5.232;2022-09-09T00:03:11;3.53;;;2.67;;
17598;SDS011;8918;52.092;5.232;2022-09-09T00:08:38;3.17;;;2.40;;
17598;SDS011;8918;52.092;5.232;2022-09-09T00:11:24;5.85;;;2.70;;
17598;SDS011;8918;52.092;5.232;2022-09-09T00:13:56;5.45;;;2.90;;
17598;SDS011;8918;52.092;5.232;2022-09-09T00:16:38;3.78;;;2.78;;
17598;SDS011;8918;52.092;5.232;2022-09-09T00:27:40;4.55;;;2.78;;
17598;SDS011;8918;52.092;5.232;2022-09-09T00:30:17;4.78;;;3.10;;
17598;SDS011;8918;52.092;5.232;2022-09-09T00:32:57;4.97;;;3.50;;
17598;SDS011;8918;52.092;5.232;2022-09-09T00:35:27;3.20;;;2.78;;
17598;SDS011;8918;52.092;5.232;2022-09-09T00:38:10;4.70;;;3.03;;
17598;SDS011;8918;52.092;5.232;2022-09-09T00:40:55;6.30;;;3.20;;
17598;SDS011;8918;52.092;5.232;2022-09-09T00:51:14;4.40;;;3.60;;
17598;SDS011;8918;52.092;5.232;2022-09-09T00:54:07;3.63;;;3.13;;
17598;SDS011;8918;52.092;5.232;2022-09-09T00:56:53;4.43;;;3.38;;
17598;SDS011;8918;52.092;5.232;2022-09-09T01:02:17;5.75;;;3.33;;
17598;SDS011;8918;52.092;5.232;2022-09-09T01:04:53;4.38;;;3.40;;
17598;SDS011;8918;52.092;5.232;2022-09-09T01:07:19;4.75;;;3.65;;
17598;SDS011;8918;52.092;5.232;2022-09-09T01:09:50;6.73;;;3.80;;
17598;SDS011;8918;52.092;5.232;2022-09-09T01:15:12;6.85;;;3.60;;
17598;SDS011;8918;52.092;5.232;2022-09-09T01:28:39;3.85;;;3.38;;
17598;SDS011;8918;52.092;5.232;2022-09-09T01:31:07;5.93;;;3.90;;
17598;SDS011;8918;52.092;5.232;2022-09-09T01:33:36;5.30;;;3.90;;
17598;SDS011;8918;52.092;5.232;2022-09-09T01:36:05;5.15;;;3.90;;
17598;SDS011;8918;52.092;5.232;2022-09-09T01:38:35;4.57;;;3.72;;
17598;SDS011;8918;52.092;5.232;2022-09-09T01:41:02;6.30;;;3.88;;
17598;SDS011;8918;52.092;5.232;2022-09-09T01:43:29;7.33;;;4.30;;
17598;SDS011;8918;52.092;5.232;2022-09-09T01:46:01;5.00;;;3.97;;
17598;SDS011;8918;52.092;5.232;2022-09-09T01:48:28;5.00;;;3.77;;
17598;SDS011;8918;52.092;5.232;2022-09-09T01:50:54;5.30;;;3.93;;
17598;SDS011;8918;52.092;5.232;2022-09-09T01:53:22;5.37;;;3.97;;
17598;SDS011;8918;52.092;5.232;2022-09-09T02:01:12;5.88;;;4.05;;
17598;SDS011;8918;52.092;5.232;2022-09-09T02:03:49;4.38;;;3.92;;
17598;SDS011;8918;52.092;5.232;2022-09-09T02:08:50;4.63;;;3.95;;
17598;SDS011;8918;52.092;5.232;2022-09-09T02:11:25;4.87;;;3.87;;
17598;SDS011;8918;52.092;5.232;2022-09-09T02:13:53;6.63;;;4.20;;
17598;SDS011;8918;52.092;5.232;2022-09-09T02:19:06;4.30;;;3.80;;
17598;SDS011;8918;52.092;5.232;2022-09-09T02:21:49;5.87;;;4.23;;
17598;SDS011;8918;52.092;5.232;2022-09-09T02:24:17;6.63;;;4.00;;
17598;SDS011;8918;52.092;5.232;2022-09-09T02:26:43;6.70;;;3.72;;
17598;SDS011;8918;52.092;5.232;2022-09-09T02:29:12;5.95;;;4.35;;
17598;SDS011;8918;52.092;5.232;2022-09-09T02:31:41;5.55;;;3.95;;
17598;SDS011;8918;52.092;5.232;2022-09-09T02:34:09;5.53;;;3.87;;
17598;SDS011;8918;52.092;5.232;2022-09-09T02:36:36;5.80;;;3.90;;
17598;SDS011;8918;52.092;5.232;2022-09-09T02:39:05;6.13;;;4.10;;
17598;SDS011;8918;52.092;5.232;2022-09-09T02:41:36;5.03;;;4.23;;
17598;SDS011;8918;52.092;5.232;2022-09-09T02:44:09;6.33;;;4.67;;
17598;SDS011;8918;52.092;5.232;2022-09-09T02:46:45;7.20;;;4.27;;
17598;SDS011;8918;52.092;5.232;2022-09-09T02:49:43;5.37;;;3.83;;
17598;SDS011;8918;52.092;5.232;2022-09-09T02:52:32;6.60;;;4.50;;
17598;SDS011;8918;52.092;5.232;2022-09-09T02:55:04;6.03;;;4.60;;
17598;SDS011;8918;52.092;5.232;2022-09-09T02:57:37;5.27;;;3.90;;
17598;SDS011;8918;52.092;5.232;2022-09-09T03:00:04;6.60;;;4.50;;
17598;SDS011;8918;52.092;5.232;2022-09-09T03:02:30;6.17;;;4.67;;
17598;SDS011;8918;52.092;5.232;2022-09-09T03:04:56;5.90;;;4.40;;
17598;SDS011;8918;52.092;5.232;2022-09-09T03:07:21;6.10;;;4.60;;
17598;SDS011;8918;52.092;5.232;2022-09-09T03:09:47;7.60;;;4.90;;
17598;SDS011;8918;52.092;5.232;2022-09-09T03:12:20;6.90;;;4.43;;
17598;SDS011;8918;52.092;5.232;2022-09-09T03:14:46;7.17;;;4.50;;
17598;SDS011;8918;52.092;5.232;2022-09-09T03:17:12;6.97;;;4.80;;
17598;SDS011;8918;52.092;5.232;2022-09-09T03:19:37;6.57;;;4.50;;
17598;SDS011;8918;52.092;5.232;2022-09-09T03:22:04;6.20;;;4.53;;
17598;SDS011;8918;52.092;5.232;2022-09-09T03:24:29;6.10;;;5.10;;
17598;SDS011;8918;52.092;5.232;2022-09-09T03:26:55;7.03;;;5.07;;
17598;SDS011;8918;52.092;5.232;2022-09-09T03:29:21;6.70;;;5.20;;
17598;SDS011;8918;52.092;5.232;2022-09-09T03:31:46;6.37;;;5.13;;
17598;SDS011;8918;52.092;5.232;2022-09-09T03:34:12;6.10;;;5.40;;
17598;SDS011;8918;52.092;5.232;2022-09-09T03:36:38;6.93;;;5.13;;
17598;SDS011;8918;52.092;5.232;2022-09-09T03:39:06;7.07;;;5.13;;
17598;SDS011;8918;52.092;5.232;2022-09-09T03:41:31;8.63;;;5.37;;
17598;SDS011;8918;52.092;5.232;2022-09-09T03:43:57;10.13;;;5.53;;
17598;SDS011;8918;52.092;5.232;2022-09-09T03:46:26;6.00;;;4.97;;
17598;SDS011;8918;52.092;5.232;2022-09-09T03:48:51;8.50;;;5.40;;
17598;SDS011;8918;52.092;5.232;2022-09-09T03:51:17;10.67;;;5.47;;
17598;SDS011;8918;52.092;5.232;2022-09-09T03:53:43;7.00;;;5.10;;
17598;SDS011;8918;52.092;5.232;2022-09-09T03:56:09;6.70;;;4.80;;
17598;SDS011;8918;52.092;5.232;2022-09-09T03:58:35;8.17;;;5.17;;
17598;SDS011;8918;52.092;5.232;2022-09-09T04:01:03;8.50;;;5.07;;
17598;SDS011;8918;52.092;5.232;2022-09-09T04:03:40;8.07;;;5.40;;
17598;SDS011;8918;52.092;5.232;2022-09-09T04:06:06;6.93;;;5.10;;
17598;SDS011;8918;52.092;5.232;2022-09-09T04:08:39;6.70;;;4.90;;
17598;SDS011;8918;52.092;5.232;2022-09-09T04:11:06;7.57;;;5.47;;
17598;SDS011;8918;52.092;5.232;2022-09-09T04:13:33;9.17;;;5.23;;
17598;SDS011;8918;52.092;5.232;2022-09-09T04:16:00;6.93;;;5.33;;
17598;SDS011;8918;52.092;5.232;2022-09-09T04:18:27;7.57;;;5.23;;
17598;SDS011;8918;52.092;5.232;2022-09-09T04:20:53;7.33;;;5.40;;
17598;SDS011;8918;52.092;5.232;2022-09-09T04:23:20;7.53;;;5.27;;
17598;SDS011;8918;52.092;5.232;2022-09-09T04:25:46;8.73;;;4.93;;
17598;SDS011;8918;52.092;5.232;2022-09-09T04:28:13;8.17;;;5.07;;
17598;SDS011;8918;52.092;5.232;2022-09-09T04:30:40;10.17;;;5.17;;
17598;SDS011;8918;52.092;5.232;2022-09-09T04:33:06;7.27;;;5.00;;
17598;SDS011;8918;52.092;5.232;2022-09-09T04:35:32;7.30;;;5.10;;
17598;SDS011;8918;52.092;5.232;2022-09-09T04:37:58;6.77;;;5.00;;
17598;SDS011;8918;52.092;5.232;2022-09-09T04:40:24;8.67;;;5.03;;
17598;SDS011;8918;52.092;5.232;2022-09-09T04:42:50;7.13;;;5.20;;
17598;SDS011;8918;52.092;5.232;2022-09-09T04:45:16;7.97;;;4.97;;
17598;SDS011;8918;52.092;5.232;2022-09-09T04:47:41;5.93;;;4.70;;
17598;SDS011;8918;52.092;5.232;2022-09-09T04:50:07;8.47;;;5.30;;
17598;SDS011;8918;52.092;5.232;2022-09-09T04:52:34;7.73;;;4.43;;
17598;SDS011;8918;52.092;5.232;2022-09-09T04:55:00;7.07;;;4.80;;
17598;SDS011;8918;52.092;5.232;2022-09-09T04:57:26;8.60;;;4.83;;
17598;SDS011;8918;52.092;5.232;2022-09-09T04:59:52;7.20;;;5.10;;
17598;SDS011;8918;52.092;5.232;2022-09-09T05:02:17;8.87;;;5.00;;
17598;SDS011;8918;52.092;5.232;2022-09-09T05:04:43;9.07;;;4.90;;
17598;SDS011;8918;52.092;5.232;2022-09-09T05:07:08;7.53;;;4.80;;
17598;SDS011;8918;52.092;5.232;2022-09-09T05:09:35;5.50;;;4.50;;
17598;SDS011;8918;52.092;5.232;2022-09-09T05:12:00;6.83;;;5.07;;
17598;SDS011;8918;52.092;5.232;2022-09-09T05:14:27;6.07;;;4.53;;
17598;SDS011;8918;52.092;5.232;2022-09-09T05:16:54;5.70;;;4.53;;
17598;SDS011;8918;52.092;5.232;2022-09-09T05:19:21;5.83;;;4.17;;
17598;SDS011;8918;52.092;5.232;2022-09-09T05:21:46;6.57;;;4.20;;
17598;SDS011;8918;52.092;5.232;2022-09-09T05:24:12;7.80;;;4.47;;
17598;SDS011;8918;52.092;5.232;2022-09-09T05:26:38;8.73;;;4.50;;
17598;SDS011;8918;52.092;5.232;2022-09-09T05:29:03;9.30;;;4.53;;
17598;SDS011;8918;52.092;5.232;2022-09-09T05:31:30;7.17;;;4.10;;
17598;SDS011;8918;52.092;5.232;2022-09-09T05:33:55;7.13;;;4.23;;
17598;SDS011;8918;52.092;5.232;2022-09-09T05:36:21;9.17;;;4.63;;
17598;SDS011;8918;52.092;5.232;2022-09-09T05:38:50;6.73;;;3.70;;
17598;SDS011;8918;52.092;5.232;2022-09-09T05:41:16;8.17;;;4.17;;
17598;SDS011;8918;52.092;5.232;2022-09-09T05:43:42;7.63;;;4.83;;
17598;SDS011;8918;52.092;5.232;2022-09-09T05:46:19;6.97;;;3.77;;
17598;SDS011;8918;52.092;5.232;2022-09-09T05:48:46;9.67;;;4.40;;
17598;SDS011;8918;52.092;5.232;2022-09-09T05:51:14;8.73;;;4.50;;
17598;SDS011;8918;52.092;5.232;2022-09-09T05:53:42;7.83;;;4.30;;
17598;SDS011;8918;52.092;5.232;2022-09-09T05:56:10;9.23;;;4.13;;
17598;SDS011;8918;52.092;5.232;2022-09-09T05:58:37;9.00;;;4.20;;
17598;SDS011;8918;52.092;5.232;2022-09-09T06:01:07;9.80;;;3.70;;
17598;SDS011;8918;52.092;5.232;2022-09-09T06:03:35;5.77;;;3.90;;
17598;SDS011;8918;52.092;5.232;2022-09-09T06:06:04;10.10;;;4.43;;
17598;SDS011;8918;52.092;5.232;2022-09-09T06:08:31;8.90;;;3.80;;
17598;SDS011;8918;52.092;5.232;2022-09-09T06:11:01;8.23;;;3.90;;
17598;SDS011;8918;52.092;5.232;2022-09-09T06:13:28;8.63;;;3.70;;
17598;SDS011;8918;52.092;5.232;2022-09-09T06:15:54;8.30;;;3.53;;
17598;SDS011;8918;52.092;5.232;2022-09-09T06:18:20;7.13;;;3.63;;
17598;SDS011;8918;52.092;5.232;2022-09-09T06:20:59;7.73;;;3.80;;
17598;SDS011;8918;52.092;5.232;2022-09-09T06:23:26;10.97;;;3.90;;
17598;SDS011;8918;52.092;5.232;2022-09-09T06:26:04;8.50;;;3.73;;
17598;SDS011;8918;52.092;5.232;2022-09-09T06:28:31;6.47;;;3.30;;
17598;SDS011;8918;52.092;5.232;2022-09-09T06:30:58;6.13;;;3.30;;
17598;SDS011;8918;52.092;5.232;2022-09-09T06:33:39;8.00;;;3.90;;
17598;SDS011;8918;52.092;5.232;2022-09-09T06:36:11;6.73;;;3.33;;
17598;SDS011;8918;52.092;5.232;2022-09-09T06:38:38;7.57;;;3.67;;
17598;SDS011;8918;52.092;5.232;2022-09-09T06:41:04;9.10;;;3.63;;
17598;SDS011;8918;52.092;5.232;2022-09-09T06:43:30;7.18;;;3.30;;
17598;SDS011;8918;52.092;5.232;2022-09-09T06:48:22;8.50;;;3.63;;
17598;SDS011;8918;52.092;5.232;2022-09-09T06:50:48;11.30;;;4.20;;
17598;SDS011;8918;52.092;5.232;2022-09-09T06:53:17;9.10;;;3.47;;
17598;SDS011;8918;52.092;5.232;2022-09-09T06:55:44;8.45;;;3.65;;
17598;SDS011;8918;52.092;5.232;2022-09-09T06:58:10;8.95;;;3.30;;
17598;SDS011;8918;52.092;5.232;2022-09-09T07:00:36;11.80;;;3.90;;
17598;SDS011;8918;52.092;5.232;2022-09-09T07:03:04;6.43;;;3.50;;
17598;SDS011;8918;52.092;5.232;2022-09-09T07:05:34;7.53;;;3.70;;
17598;SDS011;8918;52.092;5.232;2022-09-09T07:07:59;6.65;;;3.25;;
17598;SDS011;8918;52.092;5.232;2022-09-09T07:10:25;7.60;;;3.50;;
17598;SDS011;8918;52.092;5.232;2022-09-09T07:12:51;9.20;;;3.35;;
17598;SDS011;8918;52.092;5.232;2022-09-09T07:15:17;7.47;;;2.92;;
17598;SDS011;8918;52.092;5.232;2022-09-09T07:17:43;6.57;;;2.80;;
17598;SDS011;8918;52.092;5.232;2022-09-09T07:20:09;9.45;;;3.10;;
17598;SDS011;8918;52.092;5.232;2022-09-09T07:22:35;6.47;;;3.08;;
17598;SDS011;8918;52.092;5.232;2022-09-09T07:25:01;9.32;;;3.63;;
17598;SDS011;8918;52.092;5.232;2022-09-09T07:27:27;12.15;;;3.40;;
17598;SDS011;8918;52.092;5.232;2022-09-09T07:29:52;8.20;;;2.95;;
17598;SDS011;8918;52.092;5.232;2022-09-09T07:32:19;9.68;;;3.10;;
17598;SDS011;8918;52.092;5.232;2022-09-09T07:34:45;7.97;;;3.38;;
17598;SDS011;8918;52.092;5.232;2022-09-09T07:37:11;9.93;;;3.40;;
17598;SDS011;8918;52.092;5.232;2022-09-09T07:39:38;7.50;;;3.50;;
17598;SDS011;8918;52.092;5.232;2022-09-09T07:42:04;7.90;;;3.15;;
17598;SDS011;8918;52.092;5.232;2022-09-09T07:44:30;7.88;;;3.28;;
17598;SDS011;8918;52.092;5.232;2022-09-09T07:46:59;8.10;;;2.90;;
17598;SDS011;8918;52.092;5.232;2022-09-09T07:49:25;10.45;;;3.80;;
17598;SDS011;8918;52.092;5.232;2022-09-09T07:51:51;7.85;;;3.22;;
17598;SDS011;8918;52.092;5.232;2022-09-09T07:54:18;9.70;;;3.20;;
17598;SDS011;8918;52.092;5.232;2022-09-09T07:56:48;8.38;;;3.65;;
17598;SDS011;8918;52.092;5.232;2022-09-09T07:59:15;10.80;;;3.50;;
17598;SDS011;8918;52.092;5.232;2022-09-09T08:01:44;9.27;;;3.30;;
17598;SDS011;8918;52.092;5.232;2022-09-09T08:04:13;7.63;;;2.90;;
17598;SDS011;8918;52.092;5.232;2022-09-09T08:06:42;8.23;;;3.10;;
17598;SDS011;8918;52.092;5.232;2022-09-09T08:09:09;10.02;;;3.30;;
17598;SDS011;8918;52.092;5.232;2022-09-09T08:11:35;11.52;;;2.97;;
17598;SDS011;8918;52.092;5.232;2022-09-09T08:14:02;6.97;;;2.85;;
17598;SDS011;8918;52.092;5.232;2022-09-09T08:16:29;8.30;;;2.80;;
17598;SDS011;8918;52.092;5.232;2022-09-09T08:18:57;8.55;;;2.72;;
17598;SDS011;8918;52.092;5.232;2022-09-09T08:21:25;8.13;;;3.15;;
17598;SDS011;8918;52.092;5.232;2022-09-09T08:23:56;6.95;;;2.85;;
17598;SDS011;8918;52.092;5.232;2022-09-09T08:26:24;6.88;;;2.95;;
17598;SDS011;8918;52.092;5.232;2022-09-09T08:28:54;9.82;;;2.80;;
17598;SDS011;8918;52.092;5.232;2022-09-09T08:31:22;13.15;;;3.17;;
17598;SDS011;8918;52.092;5.232;2022-09-09T08:33:50;7.53;;;3.47;;
17598;SDS011;8918;52.092;5.232;2022-09-09T08:36:17;8.50;;;3.20;;
17598;SDS011;8918;52.092;5.232;2022-09-09T08:38:51;9.00;;;3.28;;
17598;SDS011;8918;52.092;5.232;2022-09-09T08:44:21;10.23;;;2.80;;
17598;SDS011;8918;52.092;5.232;2022-09-09T08:52:21;7.90;;;2.55;;
17598;SDS011;8918;52.092;5.232;2022-09-09T08:54:52;8.40;;;3.00;;
17598;SDS011;8918;52.092;5.232;2022-09-09T08:57:23;7.35;;;2.80;;
17598;SDS011;8918;52.092;5.232;2022-09-09T08:59:54;8.13;;;2.90;;
17598;SDS011;8918;52.092;5.232;2022-09-09T09:02:24;8.18;;;3.10;;
17598;SDS011;8918;52.092;5.232;2022-09-09T09:08:07;8.20;;;2.78;;
17598;SDS011;8918;52.092;5.232;2022-09-09T09:10:49;9.20;;;3.00;;
17598;SDS011;8918;52.092;5.232;2022-09-09T09:13:29;8.57;;;2.92;;
17598;SDS011;8918;52.092;5.232;2022-09-09T09:16:03;9.15;;;3.10;;
17598;SDS011;8918;52.092;5.232;2022-09-09T09:18:39;7.20;;;2.90;;
17598;SDS011;8918;52.092;5.232;2022-09-09T09:23:39;7.82;;;2.88;;
17598;SDS011;8918;52.092;5.232;2022-09-09T09:26:12;8.82;;;3.20;;
17598;SDS011;8918;52.092;5.232;2022-09-09T09:28:37;10.73;;;3.50;;
17598;SDS011;8918;52.092;5.232;2022-09-09T09:31:06;9.70;;;2.90;;
17598;SDS011;8918;52.092;5.232;2022-09-09T09:33:44;8.00;;;3.00;;
17598;SDS011;8918;52.092;5.232;2022-09-09T09:36:18;6.47;;;3.17;;
17598;SDS011;8918;52.092;5.232;2022-09-09T09:38:57;7.75;;;2.85;;
17598;SDS011;8918;52.092;5.232;2022-09-09T09:41:31;7.55;;;3.10;;
17598;SDS011;8918;52.092;5.232;2022-09-09T09:44:03;9.02;;;3.38;;
17598;SDS011;8918;52.092;5.232;2022-09-09T09:46:30;9.10;;;3.28;;
17598;SDS011;8918;52.092;5.232;2022-09-09T09:49:00;11.57;;;3.53;;
17598;SDS011;8918;52.092;5.232;2022-09-09T09:51:33;8.13;;;3.83;;
17598;SDS011;8918;52.092;5.232;2022-09-09T09:54:18;7.45;;;3.42;;
17598;SDS011;8918;52.092;5.232;2022-09-09T09:56:53;9.65;;;3.38;;
17598;SDS011;8918;52.092;5.232;2022-09-09T10:01:49;12.73;;;3.92;;
17598;SDS011;8918;52.092;5.232;2022-09-09T10:06:44;8.65;;;3.70;;
17598;SDS011;8918;52.092;5.232;2022-09-09T10:09:25;8.98;;;3.80;;
17598;SDS011;8918;52.092;5.232;2022-09-09T10:12:03;9.57;;;3.55;;
17598;SDS011;8918;52.092;5.232;2022-09-09T10:15:35;10.73;;;3.38;;
17598;SDS011;8918;52.092;5.232;2022-09-09T10:17:47;9.23;;;3.45;;
17598;SDS011;8918;52.092;5.232;2022-09-09T10:26:07;7.43;;;3.00;;
17598;SDS011;8918;52.092;5.232;2022-09-09T10:31:36;7.22;;;3.50;;
17598;SDS011;8918;52.092;5.232;2022-09-09T10:34:33;7.40;;;3.50;;
17598;SDS011;8918;52.092;5.232;2022-09-09T10:38:08;9.30;;;3.47;;
17598;SDS011;8918;52.092;5.232;2022-09-09T10:48:25;6.90;;;3.28;;
17598;SDS011;8918;52.092;5.232;2022-09-09T10:53:54;7.50;;;3.88;;
17598;SDS011;8918;52.092;5.232;2022-09-09T10:56:32;6.55;;;3.55;;
17598;SDS011;8918;52.092;5.232;2022-09-09T10:59:00;8.30;;;3.30;;
17598;SDS011;8918;52.092;5.232;2022-09-09T11:01:34;6.47;;;3.08;;
17598;SDS011;8918;52.092;5.232;2022-09-09T11:04:12;8.43;;;3.33;;
17598;SDS011;8918;52.092;5.232;2022-09-09T11:07:06;6.32;;;3.35;;
17598;SDS011;8918;52.092;5.232;2022-09-09T11:09:36;8.05;;;3.70;;
17598;SDS011;8918;52.092;5.232;2022-09-09T11:12:09;7.22;;;3.67;;
17598;SDS011;8918;52.092;5.232;2022-09-09T11:14:45;8.80;;;3.90;;
17598;SDS011;8918;52.092;5.232;2022-09-09T11:17:23;7.60;;;3.53;;
17598;SDS011;8918;52.092;5.232;2022-09-09T11:19:55;6.57;;;3.70;;
17598;SDS011;8918;52.092;5.232;2022-09-09T11:22:25;7.47;;;3.85;;
17598;SDS011;8918;52.092;5.232;2022-09-09T11:24:58;6.90;;;3.28;;
17598;SDS011;8918;52.092;5.232;2022-09-09T11:27:37;8.52;;;3.33;;
17598;SDS011;8918;52.092;5.232;2022-09-09T11:30:19;8.95;;;3.55;;
17598;SDS011;8918;52.092;5.232;2022-09-09T11:33:05;3.75;;;2.80;;
17598;SDS011;8918;52.092;5.232;2022-09-09T11:40:54;6.13;;;3.00;;
17598;SDS011;8918;52.092;5.232;2022-09-09T11:43:27;6.15;;;2.72;;
17598;SDS011;8918;52.092;5.232;2022-09-09T11:45:57;6.35;;;2.80;;
17598;SDS011;8918;52.092;5.232;2022-09-09T11:48:35;5.97;;;2.92;;
17598;SDS011;8918;52.092;5.232;2022-09-09T11:51:08;6.50;;;3.00;;
17598;SDS011;8918;52.092;5.232;2022-09-09T11:53:36;6.10;;;3.00;;
17598;SDS011;8918;52.092;5.232;2022-09-09T11:56:24;6.65;;;3.33;;
17598;SDS011;8918;52.092;5.232;2022-09-09T12:02:08;8.20;;;3.58;;
17598;SDS011;8918;52.092;5.232;2022-09-09T12:07:34;8.77;;;4.00;;
17598;SDS011;8918;52.092;5.232;2022-09-09T12:12:53;8.02;;;3.78;;
17598;SDS011;8918;52.092;5.232;2022-09-09T12:15:26;8.02;;;3.92;;
17598;SDS011;8918;52.092;5.232;2022-09-09T12:17:54;7.13;;;4.28;;
17598;SDS011;8918;52.092;5.232;2022-09-09T12:20:23;7.57;;;4.05;;
17598;SDS011;8918;52.092;5.232;2022-09-09T12:31:27;7.88;;;4.10;;
17598;SDS011;8918;52.092;5.232;2022-09-09T12:34:02;7.38;;;4.10;;
17598;SDS011;8918;52.092;5.232;2022-09-09T12:36:34;5.07;;;3.88;;
17598;SDS011;8918;52.092;5.232;2022-09-09T12:39:09;9.30;;;4.20;;
17598;SDS011;8918;52.092;5.232;2022-09-09T12:41:50;7.80;;;4.30;;
17598;SDS011;8918;52.092;5.232;2022-09-09T12:44:21;5.90;;;4.25;;
17598;SDS011;8918;52.092;5.232;2022-09-09T12:46:47;8.30;;;4.35;;
17598;SDS011;8918;52.092;5.232;2022-09-09T12:49:25;8.52;;;4.47;;
17598;SDS011;8918;52.092;5.232;2022-09-09T12:52:01;10.07;;;4.45;;
17598;SDS011;8918;52.092;5.232;2022-09-09T12:54:30;8.48;;;4.57;;
17598;SDS011;8918;52.092;5.232;2022-09-09T12:56:57;6.88;;;4.40;;
17598;SDS011;8918;52.092;5.232;2022-09-09T12:59:27;6.65;;;4.47;;
17598;SDS011;8918;52.092;5.232;2022-09-09T13:02:18;8.13;;;4.40;;
17598;SDS011;8918;52.092;5.232;2022-09-09T13:04:48;7.53;;;4.53;;
17598;SDS011;8918;52.092;5.232;2022-09-09T13:07:15;5.78;;;3.95;;
17598;SDS011;8918;52.092;5.232;2022-09-09T13:09:43;6.40;;;3.70;;
17598;SDS011;8918;52.092;5.232;2022-09-09T13:12:12;4.57;;;3.38;;
17598;SDS011;8918;52.092;5.232;2022-09-09T13:14:48;5.95;;;3.47;;
17598;SDS011;8918;52.092;5.232;2022-09-09T13:17:23;6.22;;;4.05;;
17598;SDS011;8918;52.092;5.232;2022-09-09T13:19:50;7.43;;;3.85;;
17598;SDS011;8918;52.092;5.232;2022-09-09T13:22:22;7.72;;;4.15;;
17598;SDS011;8918;52.092;5.232;2022-09-09T13:25:01;6.28;;;4.63;;
17598;SDS011;8918;52.092;5.232;2022-09-09T13:27:36;6.90;;;4.22;;
17598;SDS011;8918;52.092;5.232;2022-09-09T13:30:19;8.15;;;4.60;;
17598;SDS011;8918;52.092;5.232;2022-09-09T13:33:01;6.88;;;4.28;;
17598;SDS011;8918;52.092;5.232;2022-09-09T13:35:32;6.80;;;4.50;;
17598;SDS011;8918;52.092;5.232;2022-09-09T13:37:58;6.85;;;4.40;;
17598;SDS011;8918;52.092;5.232;2022-09-09T13:40:32;8.68;;;4.55;;
17598;SDS011;8918;52.092;5.232;2022-09-09T13:42:59;7.80;;;4.60;;
17598;SDS011;8918;52.092;5.232;2022-09-09T13:45:25;7.10;;;4.15;;
17598;SDS011;8918;52.092;5.232;2022-09-09T13:47:52;8.07;;;5.13;;
17598;SDS011;8918;52.092;5.232;2022-09-09T13:50:29;10.00;;;4.93;;
17598;SDS011;8918;52.092;5.232;2022-09-09T13:52:56;7.18;;;4.70;;
17598;SDS011;8918;52.092;5.232;2022-09-09T13:55:24;8.95;;;4.90;;
17598;SDS011;8918;52.092;5.232;2022-09-09T14:00:20;8.30;;;4.63;;
17598;SDS011;8918;52.092;5.232;2022-09-09T14:02:47;7.30;;;4.60;;
17598;SDS011;8918;52.092;5.232;2022-09-09T14:05:14;7.35;;;4.57;;
17598;SDS011;8918;52.092;5.232;2022-09-09T14:07:40;7.82;;;4.80;;
17598;SDS011;8918;52.092;5.232;2022-09-09T14:10:07;9.20;;;4.97;;
17598;SDS011;8918;52.092;5.232;2022-09-09T14:12:33;5.63;;;4.38;;
17598;SDS011;8918;52.092;5.232;2022-09-09T14:15:00;10.52;;;4.90;;
17598;SDS011;8918;52.092;5.232;2022-09-09T14:17:26;6.60;;;4.10;;
17598;SDS011;8918;52.092;5.232;2022-09-09T14:19:54;7.78;;;4.55;;
17598;SDS011;8918;52.092;5.232;2022-09-09T14:22:21;9.77;;;4.90;;
17598;SDS011;8918;52.092;5.232;2022-09-09T14:24:47;7.80;;;4.72;;
17598;SDS011;8918;52.092;5.232;2022-09-09T14:27:13;7.60;;;4.72;;
17598;SDS011;8918;52.092;5.232;2022-09-09T14:29:38;7.32;;;5.00;;
17598;SDS011;8918;52.092;5.232;2022-09-09T14:32:04;6.63;;;4.55;;
17598;SDS011;8918;52.092;5.232;2022-09-09T14:34:30;8.13;;;4.82;;
17598;SDS011;8918;52.092;5.232;2022-09-09T14:36:57;7.85;;;4.60;;
17598;SDS011;8918;52.092;5.232;2022-09-09T14:39:23;9.25;;;4.68;;
17598;SDS011;8918;52.092;5.232;2022-09-09T14:41:48;8.10;;;4.70;;
17598;SDS011;8918;52.092;5.232;2022-09-09T14:44:14;7.65;;;4.63;;
17598;SDS011;8918;52.092;5.232;2022-09-09T14:46:41;8.68;;;4.97;;
17598;SDS011;8918;52.092;5.232;2022-09-09T14:49:07;8.50;;;5.10;;
17598;SDS011;8918;52.092;5.232;2022-09-09T14:51:35;8.32;;;5.10;;
17598;SDS011;8918;52.092;5.232;2022-09-09T14:54:00;7.82;;;5.03;;
17598;SDS011;8918;52.092;5.232;2022-09-09T14:56:27;7.85;;;5.00;;
17598;SDS011;8918;52.092;5.232;2022-09-09T14:58:55;4.95;;;3.45;;
17598;SDS011;8918;52.092;5.232;2022-09-09T15:01:22;5.85;;;2.95;;
17598;SDS011;8918;52.092;5.232;2022-09-09T15:03:50;3.60;;;2.53;;
17598;SDS011;8918;52.092;5.232;2022-09-09T15:06:17;5.07;;;2.47;;
17598;SDS011;8918;52.092;5.232;2022-09-09T15:08:44;2.70;;;2.47;;
17598;SDS011;8918;52.092;5.232;2022-09-09T15:11:11;3.15;;;2.67;;
17598;SDS011;8918;52.092;5.232;2022-09-09T15:13:38;5.15;;;2.45;;
17598;SDS011;8918;52.092;5.232;2022-09-09T15:16:11;4.40;;;2.40;;
17598;SDS011;8918;52.092;5.232;2022-09-09T15:18:37;4.00;;;2.58;;
17598;SDS011;8918;52.092;5.232;2022-09-09T15:21:14;4.43;;;2.33;;
17598;SDS011;8918;52.092;5.232;2022-09-09T15:23:41;4.53;;;2.05;;
17598;SDS011;8918;52.092;5.232;2022-09-09T15:26:07;4.25;;;2.28;;
17598;SDS011;8918;52.092;5.232;2022-09-09T15:28:34;5.32;;;2.38;;
17598;SDS011;8918;52.092;5.232;2022-09-09T15:31:05;3.50;;;2.15;;
17598;SDS011;8918;52.092;5.232;2022-09-09T15:33:58;4.40;;;2.22;;
17598;SDS011;8918;52.092;5.232;2022-09-09T15:36:31;3.80;;;2.00;;
17598;SDS011;8918;52.092;5.232;2022-09-09T15:39:17;2.67;;;2.20;;
17598;SDS011;8918;52.092;5.232;2022-09-09T15:41:46;3.70;;;2.40;;
17598;SDS011;8918;52.092;5.232;2022-09-09T15:44:13;5.00;;;2.83;;
17598;SDS011;8918;52.092;5.232;2022-09-09T15:46:40;3.72;;;2.47;;
17598;SDS011;8918;52.092;5.232;2022-09-09T15:49:13;3.28;;;2.60;;
17598;SDS011;8918;52.092;5.232;2022-09-09T15:51:43;3.85;;;2.25;;
17598;SDS011;8918;52.092;5.232;2022-09-09T15:54:12;3.28;;;2.28;;
17598;SDS011;8918;52.092;5.232;2022-09-09T15:56:41;3.95;;;2.08;;
17598;SDS011;8918;52.092;5.232;2022-09-09T15:59:07;4.18;;;2.35;;
17598;SDS011;8918;52.092;5.232;2022-09-09T16:01:33;3.88;;;2.30;;
17598;SDS011;8918;52.092;5.232;2022-09-09T16:03:59;4.75;;;2.60;;
17598;SDS011;8918;52.092;5.232;2022-09-09T16:06:26;3.53;;;2.35;;
17598;SDS011;8918;52.092;5.232;2022-09-09T16:08:53;5.25;;;2.38;;
17598;SDS011;8918;52.092;5.232;2022-09-09T16:11:22;6.90;;;2.75;;
17598;SDS011;8918;52.092;5.232;2022-09-09T16:13:52;6.38;;;2.60;;
17598;SDS011;8918;52.092;5.232;2022-09-09T16:16:20;5.10;;;2.42;;
17598;SDS011;8918;52.092;5.232;2022-09-09T16:18:49;3.33;;;2.58;;
17598;SDS011;8918;52.092;5.232;2022-09-09T16:21:23;2.78;;;2.22;;
17598;SDS011;8918;52.092;5.232;2022-09-09T16:23:54;4.63;;;2.50;;
17598;SDS011;8918;52.092;5.232;2022-09-09T16:26:20;4.85;;;2.63;;
17598;SDS011;8918;52.092;5.232;2022-09-09T16:28:47;4.35;;;2.50;;
17598;SDS011;8918;52.092;5.232;2022-09-09T16:31:16;6.03;;;2.60;;
17598;SDS011;8918;52.092;5.232;2022-09-09T16:33:44;3.22;;;2.30;;
17598;SDS011;8918;52.092;5.232;2022-09-09T16:36:11;4.80;;;2.63;;
17598;SDS011;8918;52.092;5.232;2022-09-09T16:38:39;4.10;;;2.70;;
17598;SDS011;8918;52.092;5.232;2022-09-09T16:41:05;5.97;;;2.85;;
17598;SDS011;8918;52.092;5.232;2022-09-09T16:43:32;6.60;;;2.88;;
17598;SDS011;8918;52.092;5.232;2022-09-09T16:45:59;4.97;;;3.17;;
17598;SDS011;8918;52.092;5.232;2022-09-09T16:48:26;6.07;;;3.20;;
17598;SDS011;8918;52.092;5.232;2022-09-09T16:50:52;6.13;;;3.40;;
17598;SDS011;8918;52.092;5.232;2022-09-09T16:53:18;6.28;;;3.72;;
17598;SDS011;8918;52.092;5.232;2022-09-09T16:55:43;5.68;;;3.90;;
17598;SDS011;8918;52.092;5.232;2022-09-09T16:58:12;6.95;;;3.95;;
17598;SDS011;8918;52.092;5.232;2022-09-09T17:00:37;6.72;;;4.00;;
17598;SDS011;8918;52.092;5.232;2022-09-09T17:03:03;6.70;;;3.90;;
17598;SDS011;8918;52.092;5.232;2022-09-09T17:05:29;5.68;;;3.80;;
17598;SDS011;8918;52.092;5.232;2022-09-09T17:07:55;8.05;;;4.30;;
17598;SDS011;8918;52.092;5.232;2022-09-09T17:10:22;6.32;;;4.38;;